Time;durP1;ratioP1;P1;durP2;ratioP2;P2;SDS_P1;SDS_P2;PMS_P1;PMS_P2;Temp;Humidity;BMP_temperature;BMP_pressure;BME280_temperature;BME280_humidity;BME280_pressure;Samples;Min_cycle;Max_cycle;Signal;HPM_P1;HPM_P2
2022/05/08 00:02:19;;;;;;;6.15;3.00;;;14.00;99.90;;;;;;5033336;28;20044;-78
2022/05/08 00:04:45;;;;;;;4.60;2.83;;;13.90;99.90;;;;;;5015243;28;20029;-78
2022/05/08 00:07:11;;;;;;;5.85;2.85;;;13.90;99.90;;;;;;5015722;28;20025;-79
2022/05/08 00:09:37;;;;;;;3.42;2.40;;;13.90;99.90;;;;;;5015696;28;20120;-78
2022/05/08 00:12:04;;;;;;;3.60;2.70;;;13.90;99.90;;;;;;5031492;28;20037;-79
2022/05/08 00:14:29;;;;;;;5.05;2.50;;;13.80;99.90;;;;;;5015474;28;20104;-79
2022/05/08 00:16:55;;;;;;;6.72;3.03;;;13.80;99.90;;;;;;5014967;28;20120;-79
2022/05/08 00:19:21;;;;;;;4.38;2.67;;;13.80;99.90;;;;;;5014884;28;20108;-78
2022/05/08 00:21:46;;;;;;;5.50;2.72;;;13.70;99.90;;;;;;5031268;28;20140;-79
2022/05/08 00:24:12;;;;;;;5.32;3.05;;;13.70;99.90;;;;;;5033195;28;20112;-79
2022/05/08 00:26:38;;;;;;;3.03;2.63;;;13.60;99.90;;;;;;5033097;28;20063;-79
2022/05/08 00:29:03;;;;;;;5.20;2.63;;;13.50;99.90;;;;;;5032571;28;20502;-79
2022/05/08 00:31:29;;;;;;;3.40;2.65;;;13.50;99.90;;;;;;5032084;28;20072;-79
2022/05/08 00:33:55;;;;;;;3.08;2.45;;;13.50;99.90;;;;;;5015086;28;20025;-79
2022/05/08 00:36:21;;;;;;;4.38;2.47;;;13.50;99.90;;;;;;5032164;28;20026;-79
2022/05/08 00:38:46;;;;;;;3.58;2.70;;;13.50;99.90;;;;;;5014751;28;20026;-79
2022/05/08 00:41:12;;;;;;;5.25;2.65;;;13.50;99.90;;;;;;5015577;28;20026;-79
2022/05/08 00:43:40;;;;;;;6.25;3.35;;;13.40;99.90;;;;;;5033134;28;20057;-79
2022/05/08 00:46:13;;;;;;;5.35;3.20;;;13.40;99.90;;;;;;5014902;28;20478;-79
2022/05/08 00:48:39;;;;;;;5.03;3.20;;;13.40;99.90;;;;;;5033064;28;20029;-79
2022/05/08 00:51:08;;;;;;;4.85;3.33;;;13.50;99.90;;;;;;5014936;28;20048;-79
2022/05/08 00:53:56;;;;;;;8.30;3.63;;;13.50;99.90;;;;;;5015791;28;20048;-79
2022/05/08 00:56:22;;;;;;;6.20;3.85;;;13.70;99.90;;;;;;5015868;28;20028;-78
2022/05/08 00:58:50;;;;;;;4.38;3.78;;;13.70;99.90;;;;;;5014884;28;20488;-77
2022/05/08 01:01:17;;;;;;;5.15;3.75;;;13.80;99.90;;;;;;5032803;28;20025;-78
2022/05/08 01:03:43;;;;;;;4.82;3.60;;;13.80;99.90;;;;;;5015204;28;20104;-79
2022/05/08 01:06:11;;;;;;;6.68;4.40;;;13.90;99.90;;;;;;5032545;28;20075;-77
2022/05/08 01:08:41;;;;;;;7.07;4.15;;;14.00;99.90;;;;;;5031850;28;20037;-77
2022/05/08 01:11:08;;;;;;;7.50;4.20;;;14.00;99.90;;;;;;5032402;28;20034;-78
2022/05/08 01:13:34;;;;;;;9.98;4.10;;;14.10;99.90;;;;;;5015326;28;20033;-78
2022/05/08 01:15:59;;;;;;;7.43;4.25;;;14.20;99.90;;;;;;5032497;28;20079;-79
2022/05/08 01:18:25;;;;;;;6.40;4.00;;;14.20;99.90;;;;;;5015743;28;20029;-79
2022/05/08 01:20:52;;;;;;;4.72;3.78;;;14.30;99.90;;;;;;5032619;28;20026;-79
2022/05/08 01:23:19;;;;;;;5.22;3.90;;;14.30;99.90;;;;;;5015464;28;20049;-79
2022/05/08 01:25:47;;;;;;;9.05;4.43;;;14.30;99.90;;;;;;5015042;28;20079;-81
2022/05/08 01:28:14;;;;;;;8.52;4.30;;;14.30;99.90;;;;;;5031873;28;20356;-80
2022/05/08 01:30:41;;;;;;;8.30;4.60;;;14.30;99.90;;;;;;5016203;28;20111;-79
2022/05/08 01:33:07;;;;;;;5.88;3.80;;;14.30;99.90;;;;;;5018044;28;20069;-79
2022/05/08 01:35:33;;;;;;;6.05;4.35;;;14.40;99.90;;;;;;5036357;28;20052;-79
2022/05/08 01:37:59;;;;;;;8.63;4.47;;;14.30;99.90;;;;;;5034859;28;20451;-79
2022/05/08 01:40:25;;;;;;;8.80;4.53;;;14.30;99.90;;;;;;5036517;28;20104;-79
2022/05/08 01:42:51;;;;;;;6.97;4.88;;;14.40;99.90;;;;;;5035467;28;20025;-79
2022/05/08 01:45:16;;;;;;;5.78;3.88;;;14.40;99.90;;;;;;5034977;28;20120;-79
2022/05/08 01:50:26;;;;;;;5.78;4.43;;;14.30;99.90;;;;;;5036618;28;21196;-79
2022/05/08 01:52:52;;;;;;;5.82;4.70;;;14.30;99.90;;;;;;5034668;28;20101;-79
2022/05/08 01:55:18;;;;;;;6.22;4.80;;;14.20;99.90;;;;;;5035086;28;20030;-79
2022/05/08 01:57:44;;;;;;;7.82;4.75;;;14.20;99.90;;;;;;5018558;28;20080;-79
2022/05/08 02:00:10;;;;;;;8.27;5.03;;;14.10;99.90;;;;;;5017657;28;20037;-79
2022/05/08 02:02:36;;;;;;;7.13;4.50;;;14.00;99.90;;;;;;5018284;28;20076;-79
2022/05/08 02:05:03;;;;;;;6.97;4.88;;;14.00;99.90;;;;;;5035317;28;20025;-79
2022/05/08 02:07:29;;;;;;;6.80;4.20;;;13.80;99.90;;;;;;5035919;28;20094;-79
2022/05/08 02:09:56;;;;;;;5.35;3.95;;;13.70;99.90;;;;;;5017819;28;20033;-78
2022/05/08 02:12:22;;;;;;;7.18;4.05;;;13.60;99.90;;;;;;5035904;28;20029;-79
2022/05/08 02:14:47;;;;;;;6.65;4.05;;;13.60;99.90;;;;;;5035628;28;20115;-80
2022/05/08 02:17:14;;;;;;;4.97;3.75;;;13.50;99.90;;;;;;5017957;28;20026;-79
2022/05/08 02:19:39;;;;;;;6.15;3.67;;;13.50;99.90;;;;;;5018380;28;20032;-79
2022/05/08 02:22:05;;;;;;;6.30;4.05;;;13.40;99.90;;;;;;5017347;28;20046;-78
2022/05/08 02:24:31;;;;;;;5.55;3.67;;;13.30;99.90;;;;;;5018109;28;20033;-78
2022/05/08 02:26:56;;;;;;;7.72;3.90;;;13.20;99.90;;;;;;5034825;28;20025;-79
2022/05/08 02:29:22;;;;;;;4.28;3.25;;;13.10;99.90;;;;;;5017869;28;20363;-78
2022/05/08 02:31:47;;;;;;;6.43;3.50;;;13.10;99.90;;;;;;5035238;28;20037;-78
2022/05/08 02:34:13;;;;;;;6.38;4.30;;;13.00;99.90;;;;;;5034279;28;20071;-79
2022/05/08 02:36:39;;;;;;;4.03;3.08;;;13.00;99.90;;;;;;5017863;28;20061;-78
2022/05/08 02:39:05;;;;;;;6.07;3.38;;;12.90;99.90;;;;;;5017382;28;20022;-79
2022/05/08 02:41:30;;;;;;;7.18;3.70;;;12.90;99.90;;;;;;5017626;28;20029;-79
2022/05/08 02:43:56;;;;;;;5.65;3.40;;;12.90;99.90;;;;;;5033842;28;20053;-79
2022/05/08 02:46:22;;;;;;;4.10;2.90;;;12.80;99.90;;;;;;5017723;28;20032;-79
2022/05/08 02:48:47;;;;;;;4.07;3.17;;;12.70;99.90;;;;;;5017773;28;20033;-79
2022/05/08 02:51:13;;;;;;;4.45;3.05;;;12.60;99.90;;;;;;5016998;28;20040;-79
2022/05/08 02:53:39;;;;;;;5.28;3.22;;;12.60;99.90;;;;;;5017469;28;20132;-79
2022/05/08 02:58:48;;;;;;;5.47;3.20;;;12.60;99.90;;;;;;5035191;28;20068;-79
2022/05/08 03:01:14;;;;;;;5.13;3.50;;;12.60;99.90;;;;;;5017062;28;20029;-78
2022/05/08 03:03:39;;;;;;;4.43;3.30;;;12.60;99.90;;;;;;5017416;28;20033;-77
2022/05/08 03:06:06;;;;;;;4.78;2.90;;;12.60;99.90;;;;;;5033904;28;20032;-78
2022/05/08 03:08:32;;;;;;;6.72;3.10;;;12.60;99.90;;;;;;5033246;28;20064;-78
2022/05/08 03:13:41;;;;;;;4.00;3.00;;;12.60;99.90;;;;;;5034524;28;20056;-78
2022/05/08 03:16:09;;;;;;;3.83;3.15;;;12.50;99.90;;;;;;5015984;28;20116;-78
2022/05/08 03:18:38;;;;;;;4.40;3.08;;;12.50;99.90;;;;;;5016704;28;20029;-78
2022/05/08 03:21:07;;;;;;;3.83;3.40;;;12.50;99.90;;;;;;5016202;28;20045;-78
2022/05/08 03:23:34;;;;;;;5.97;3.05;;;12.40;99.90;;;;;;5016483;28;20050;-79
2022/05/08 03:26:00;;;;;;;5.70;3.10;;;12.40;99.90;;;;;;5016666;28;20533;-78
2022/05/08 03:28:25;;;;;;;6.03;2.95;;;12.30;99.90;;;;;;5016820;28;20025;-78
2022/05/08 03:30:51;;;;;;;4.15;2.95;;;12.30;99.90;;;;;;5016882;28;20045;-79
2022/05/08 03:33:17;;;;;;;5.15;3.25;;;12.10;99.90;;;;;;5034005;28;20025;-79
2022/05/08 03:35:43;;;;;;;5.72;3.45;;;12.00;99.90;;;;;;5034612;28;20030;-80
2022/05/08 03:38:08;;;;;;;4.90;3.13;;;12.00;99.90;;;;;;5016320;28;20033;-79
2022/05/08 03:40:35;;;;;;;4.30;2.92;;;11.90;99.90;;;;;;5034116;28;20030;-79
2022/05/08 03:43:01;;;;;;;5.30;3.05;;;11.90;99.90;;;;;;5015550;28;20028;-80
2022/05/08 03:45:28;;;;;;;5.55;3.28;;;11.90;99.90;;;;;;5016213;28;20033;-79
2022/05/08 03:47:55;;;;;;;3.30;2.80;;;11.80;99.90;;;;;;5016435;28;20029;-81
2022/05/08 03:50:21;;;;;;;4.28;2.83;;;11.80;99.90;;;;;;5016318;28;20394;-79
2022/05/08 03:52:47;;;;;;;4.95;3.13;;;11.80;99.90;;;;;;5016950;28;20034;-79
2022/05/08 03:55:15;;;;;;;4.07;3.20;;;11.70;99.90;;;;;;5032269;28;20026;-79
2022/05/08 03:57:41;;;;;;;3.60;2.70;;;11.60;99.90;;;;;;5016643;28;20026;-79
2022/05/08 04:00:08;;;;;;;3.85;2.95;;;11.70;99.90;;;;;;5015863;28;20026;-79
2022/05/08 04:02:34;;;;;;;5.38;3.33;;;11.70;99.90;;;;;;5016383;28;20021;-79
2022/05/08 04:05:00;;;;;;;4.25;2.58;;;11.80;99.90;;;;;;5033030;28;20026;-79
2022/05/08 04:07:26;;;;;;;4.63;3.05;;;11.80;99.90;;;;;;5032540;28;20021;-78
2022/05/08 04:09:52;;;;;;;5.70;3.00;;;11.80;99.90;;;;;;5033121;28;20097;-78
2022/05/08 04:12:17;;;;;;;6.20;2.97;;;11.80;99.90;;;;;;5014986;28;20120;-78
2022/05/08 04:14:43;;;;;;;9.05;3.15;;;11.80;99.90;;;;;;5033180;28;20021;-77
2022/05/08 04:17:09;;;;;;;5.50;3.25;;;11.80;99.90;;;;;;5014869;28;20030;-78
2022/05/08 04:19:34;;;;;;;3.72;2.78;;;11.70;99.90;;;;;;5032934;28;20510;-78
2022/05/08 04:24:44;;;;;;;6.38;3.67;;;11.70;99.90;;;;;;5033291;28;20044;-78
2022/05/08 04:27:10;;;;;;;5.57;3.28;;;11.60;99.90;;;;;;5032412;28;20026;-77
2022/05/08 04:29:37;;;;;;;5.35;3.17;;;11.70;99.90;;;;;;5032126;28;20033;-78
2022/05/08 04:32:03;;;;;;;6.63;3.20;;;11.60;99.90;;;;;;5014588;28;20037;-78
2022/05/08 04:34:28;;;;;;;7.32;3.30;;;11.50;99.90;;;;;;5033102;28;20068;-78
2022/05/08 04:36:54;;;;;;;5.15;3.30;;;11.50;99.90;;;;;;5015452;28;20057;-77
2022/05/08 04:39:20;;;;;;;4.20;2.90;;;11.50;99.90;;;;;;5031445;28;20108;-78
2022/05/08 04:41:46;;;;;;;6.05;3.00;;;11.50;99.90;;;;;;5015824;28;20029;-79
2022/05/08 04:44:12;;;;;;;3.33;2.92;;;11.60;99.90;;;;;;5014908;28;20032;-79
2022/05/08 04:46:37;;;;;;;4.72;3.05;;;11.50;99.90;;;;;;5031751;28;20075;-79
2022/05/08 04:49:03;;;;;;;4.60;3.03;;;11.60;99.90;;;;;;5032224;28;20029;-79
2022/05/08 04:51:29;;;;;;;4.30;3.08;;;11.70;99.90;;;;;;5015826;28;20095;-79
2022/05/08 04:53:55;;;;;;;3.85;3.10;;;11.70;99.90;;;;;;5032103;28;20039;-79
2022/05/08 04:56:21;;;;;;;5.13;3.53;;;11.70;99.90;;;;;;5014996;28;20028;-79
2022/05/08 04:58:47;;;;;;;7.55;3.20;;;11.60;99.90;;;;;;5015515;28;20025;-79
2022/05/08 05:01:13;;;;;;;5.55;3.58;;;11.60;99.90;;;;;;5015173;28;20040;-79
2022/05/08 05:03:39;;;;;;;5.63;3.45;;;11.60;99.90;;;;;;5033164;28;20022;-79
2022/05/08 05:06:05;;;;;;;7.75;3.30;;;11.60;99.90;;;;;;5016301;28;20029;-78
2022/05/08 05:08:30;;;;;;;4.47;3.65;;;11.70;99.90;;;;;;5036918;28;20029;-78
2022/05/08 05:10:56;;;;;;;4.95;3.42;;;11.80;99.90;;;;;;5036862;28;20037;-79
2022/05/08 05:13:21;;;;;;;6.35;3.58;;;11.80;99.90;;;;;;5036554;28;20026;-79
2022/05/08 05:15:47;;;;;;;4.28;3.63;;;11.80;99.90;;;;;;5019279;28;20386;-78
2022/05/08 05:18:13;;;;;;;4.38;3.10;;;11.90;99.90;;;;;;5035142;28;20057;-78
2022/05/08 05:20:38;;;;;;;7.30;3.00;;;11.90;99.90;;;;;;5036521;28;20461;-78
2022/05/08 05:23:05;;;;;;;5.68;3.28;;;11.90;99.90;;;;;;5034399;28;20050;-79
2022/05/08 05:25:30;;;;;;;3.78;3.13;;;11.90;99.90;;;;;;5019207;28;20026;-79
2022/05/08 05:27:56;;;;;;;5.95;3.63;;;12.00;99.90;;;;;;5035222;28;20082;-79
2022/05/08 05:30:23;;;;;;;6.63;3.60;;;12.00;99.90;;;;;;5035939;28;20037;-79
2022/05/08 05:32:49;;;;;;;5.75;3.47;;;12.00;99.90;;;;;;5018593;28;20037;-79
2022/05/08 05:35:14;;;;;;;4.70;3.30;;;12.00;99.90;;;;;;5018663;28;20137;-79
2022/05/08 05:37:40;;;;;;;4.57;3.50;;;12.10;99.90;;;;;;5035321;28;20029;-79
2022/05/08 05:40:07;;;;;;;6.07;3.75;;;12.10;99.90;;;;;;5034609;28;20120;-80
2022/05/08 05:42:33;;;;;;;6.60;3.47;;;12.10;99.90;;;;;;5018915;28;20079;-79
2022/05/08 05:44:58;;;;;;;4.60;3.13;;;12.20;99.90;;;;;;5034907;28;20029;-80
2022/05/08 05:50:09;;;;;;;4.05;3.60;;;12.30;99.90;;;;;;5035349;28;20402;-79
2022/05/08 05:52:35;;;;;;;4.68;3.25;;;12.40;99.90;;;;;;5018436;28;20035;-79
2022/05/08 05:55:04;;;;;;;3.90;3.10;;;12.40;99.90;;;;;;5018002;28;20087;-79
2022/05/08 05:57:30;;;;;;;5.20;3.80;;;12.40;99.90;;;;;;5017966;28;20077;-78
2022/05/08 05:59:56;;;;;;;8.32;3.65;;;12.50;99.90;;;;;;5017580;28;20489;-79
2022/05/08 06:02:21;;;;;;;6.55;3.08;;;12.60;99.90;;;;;;5033738;28;20025;-78
2022/05/08 06:04:47;;;;;;;6.53;4.55;;;12.60;99.90;;;;;;5018116;28;20025;-79
2022/05/08 06:07:13;;;;;;;6.25;4.13;;;12.80;99.90;;;;;;5035024;28;20030;-78
2022/05/08 06:09:38;;;;;;;5.57;3.53;;;12.80;99.90;;;;;;5017758;28;20405;-78
2022/05/08 06:12:04;;;;;;;5.18;3.42;;;12.80;99.90;;;;;;5033787;28;20037;-87
2022/05/08 06:14:30;;;;;;;5.88;3.75;;;12.90;99.90;;;;;;5017814;28;20499;-77
2022/05/08 06:16:56;;;;;;;4.47;3.28;;;13.00;99.90;;;;;;5017165;28;20496;-75
2022/05/08 06:19:22;;;;;;;11.35;3.60;;;13.00;99.90;;;;;;5016140;28;20113;-76
2022/05/08 06:21:47;;;;;;;6.38;3.30;;;13.10;99.90;;;;;;5033423;28;20032;-76
2022/05/08 06:24:13;;;;;;;5.68;3.45;;;13.20;99.90;;;;;;5016726;28;20386;-76
2022/05/08 06:26:39;;;;;;;6.72;3.90;;;13.20;99.90;;;;;;5033922;28;20025;-75
2022/05/08 06:29:04;;;;;;;5.78;3.40;;;13.30;99.90;;;;;;5034281;28;20029;-76
2022/05/08 06:31:31;;;;;;;7.70;4.03;;;13.30;99.90;;;;;;5017146;28;20044;-78
2022/05/08 06:33:56;;;;;;;8.77;3.80;;;13.40;99.90;;;;;;5034065;28;20478;-78
2022/05/08 06:36:22;;;;;;;6.03;4.35;;;13.50;99.90;;;;;;5034647;28;20025;-78
2022/05/08 06:38:48;;;;;;;6.70;4.40;;;13.60;99.90;;;;;;5017294;28;20025;-77
2022/05/08 06:41:14;;;;;;;7.68;4.40;;;13.70;99.90;;;;;;5016396;28;20083;-78
2022/05/08 06:43:40;;;;;;;6.60;4.75;;;13.70;99.90;;;;;;5017221;28;20037;-78
2022/05/08 06:46:09;;;;;;;7.13;5.07;;;13.70;99.90;;;;;;5016724;28;20051;-78
2022/05/08 06:48:35;;;;;;;6.32;4.75;;;13.80;99.90;;;;;;5017705;28;20108;-77
2022/05/08 06:51:02;;;;;;;8.02;5.03;;;13.80;99.90;;;;;;5035163;28;20038;-78
2022/05/08 06:53:28;;;;;;;6.03;4.72;;;13.90;99.90;;;;;;5035264;28;20026;-78
2022/05/08 06:55:54;;;;;;;8.13;4.95;;;14.00;99.90;;;;;;5017037;28;20031;-77
2022/05/08 06:58:24;;;;;;;6.93;4.78;;;14.00;99.90;;;;;;5016638;28;20040;-78
2022/05/08 07:03:35;;;;;;;7.45;5.15;;;14.20;99.90;;;;;;5034709;28;20037;-77
2022/05/08 07:06:00;;;;;;;7.97;5.38;;;14.20;99.90;;;;;;5034735;28;20026;-77
2022/05/08 07:08:26;;;;;;;8.85;5.47;;;14.30;99.90;;;;;;5016813;28;20029;-77
2022/05/08 07:10:52;;;;;;;7.78;5.38;;;14.40;99.90;;;;;;5017099;28;20033;-77
2022/05/08 07:13:22;;;;;;;9.48;5.10;;;14.40;99.90;;;;;;5016506;28;20090;-78
2022/05/08 07:15:47;;;;;;;6.80;4.72;;;14.50;99.90;;;;;;5034592;28;20021;-77
2022/05/08 07:18:13;;;;;;;8.57;4.82;;;14.50;99.90;;;;;;5033676;28;20525;-77
2022/05/08 07:20:39;;;;;;;9.55;5.25;;;14.60;99.90;;;;;;5017000;28;20029;-78
2022/05/08 07:23:05;;;;;;;7.75;4.80;;;14.70;99.90;;;;;;5032919;28;20052;-78
2022/05/08 07:25:30;;;;;;;6.85;4.60;;;14.70;99.90;;;;;;5034474;28;20402;-77
2022/05/08 07:27:56;;;;;;;5.20;4.25;;;14.70;99.90;;;;;;5034005;28;20029;-77
2022/05/08 07:30:22;;;;;;;7.88;4.20;;;14.80;99.90;;;;;;5015881;28;20079;-78
2022/05/08 07:32:48;;;;;;;6.72;4.10;;;14.80;99.90;;;;;;5016465;28;20037;-77
2022/05/08 07:38:02;;;;;;;4.03;3.60;;;15.00;99.90;;;;;;5034278;28;20493;-78
2022/05/08 07:40:29;;;;;;;5.45;4.30;;;15.00;99.90;;;;;;5015897;28;20056;-78
2022/05/08 07:42:54;;;;;;;6.57;4.38;;;15.10;99.90;;;;;;5016523;28;20021;-78
2022/05/08 07:45:20;;;;;;;6.15;4.57;;;15.10;99.90;;;;;;5033501;28;20026;-78
2022/05/08 07:47:45;;;;;;;8.15;4.40;;;15.10;99.90;;;;;;5034113;28;20033;-78
2022/05/08 07:50:11;;;;;;;6.47;4.70;;;15.30;99.90;;;;;;5033079;28;20112;-79
2022/05/08 07:52:39;;;;;;;6.47;4.38;;;15.30;99.90;;;;;;5033769;28;20053;-77
2022/05/08 07:55:06;;;;;;;5.70;4.28;;;15.40;99.90;;;;;;5015777;28;20026;-78
2022/05/08 07:57:31;;;;;;;5.55;4.05;;;15.40;99.90;;;;;;5015993;28;20084;-78
2022/05/08 07:59:57;;;;;;;5.53;4.22;;;15.40;99.90;;;;;;5016010;28;20029;-78
2022/05/08 08:02:22;;;;;;;6.43;3.83;;;15.40;99.90;;;;;;5033091;28;20466;-78
2022/05/08 08:04:48;;;;;;;5.70;4.20;;;15.50;99.90;;;;;;5032479;28;20044;-78
2022/05/08 08:07:14;;;;;;;5.22;3.72;;;15.60;99.90;;;;;;5033239;28;20026;-78
2022/05/08 08:09:40;;;;;;;4.95;4.25;;;15.60;99.90;;;;;;5033494;28;20108;-78
2022/05/08 08:12:06;;;;;;;5.10;4.00;;;15.70;99.90;;;;;;5032035;28;20029;-78
2022/05/08 08:14:32;;;;;;;5.88;4.35;;;15.80;99.90;;;;;;5015295;28;20061;-78
2022/05/08 08:16:58;;;;;;;9.27;4.03;;;15.80;99.90;;;;;;5032304;28;20053;-78
2022/05/08 08:19:23;;;;;;;4.03;3.45;;;15.90;99.90;;;;;;5015438;28;20033;-78
2022/05/08 08:21:49;;;;;;;5.53;4.30;;;15.90;99.90;;;;;;5031835;28;20068;-78
2022/05/08 08:24:15;;;;;;;5.85;3.90;;;16.00;99.90;;;;;;5031705;28;20033;-79
2022/05/08 08:26:41;;;;;;;6.25;3.85;;;16.00;99.90;;;;;;5015763;28;20036;-78
2022/05/08 08:29:08;;;;;;;7.88;4.60;;;16.10;99.90;;;;;;5015910;28;20048;-78
2022/05/08 08:31:33;;;;;;;5.28;4.10;;;16.20;99.90;;;;;;5015832;28;20099;-78
2022/05/08 08:33:59;;;;;;;5.43;3.78;;;16.20;99.90;;;;;;5032994;28;20466;-78
2022/05/08 08:36:24;;;;;;;6.75;4.10;;;16.20;99.90;;;;;;5031639;28;20454;-79
2022/05/08 08:38:50;;;;;;;6.50;3.75;;;16.20;99.90;;;;;;5033138;28;20450;-78
2022/05/08 08:41:21;;;;;;;6.70;3.60;;;16.20;99.90;;;;;;5013998;28;20057;-79
2022/05/08 08:49:24;;;;;;;5.18;3.45;;;16.30;99.90;;;;;;5032920;28;20441;-78
2022/05/08 08:51:50;;;;;;;4.40;3.60;;;16.30;99.90;;;;;;5015270;28;20056;-78
2022/05/08 08:54:20;;;;;;;4.80;3.90;;;16.30;99.90;;;;;;5032612;28;20026;-78
2022/05/08 08:56:49;;;;;;;4.68;3.40;;;16.30;99.90;;;;;;5033104;28;20075;-78
2022/05/08 08:59:15;;;;;;;5.35;3.03;;;16.30;99.90;;;;;;5031451;28;20036;-79
2022/05/08 09:01:42;;;;;;;7.00;3.20;;;16.40;99.90;;;;;;5033078;28;20030;-78
2022/05/08 09:04:09;;;;;;;4.88;3.08;;;16.50;99.90;;;;;;5033120;28;20029;-78
2022/05/08 09:06:43;;;;;;;4.38;3.40;;;16.60;99.90;;;;;;5015219;28;20083;-78
2022/05/08 09:09:35;;;;;;;6.68;3.25;;;16.70;99.90;;;;;;5015510;28;20029;-78
2022/05/08 09:12:02;;;;;;;;;;;16.90;99.90;;;;;;5011925;28;20072;-78
2022/05/08 09:14:28;;;;;;;3.83;2.78;;;16.90;99.90;;;;;;5015153;28;20336;-78
2022/05/08 09:16:54;;;;;;;3.72;3.30;;;17.00;99.90;;;;;;5015421;28;20534;-78
2022/05/08 09:19:37;;;;;;;7.97;3.95;;;17.00;99.90;;;;;;5014808;28;20068;-79
2022/05/08 09:22:04;;;;;;;3.88;3.30;;;17.10;99.90;;;;;;5014892;28;20088;-78
2022/05/08 09:24:30;;;;;;;5.13;3.45;;;17.10;99.90;;;;;;5014764;28;20034;-79
2022/05/08 09:27:16;;;;;;;4.22;3.13;;;17.20;99.90;;;;;;5015232;28;20021;-78
2022/05/08 09:29:42;;;;;;;4.65;3.55;;;17.30;99.90;;;;;;5015300;28;20026;-78
2022/05/08 09:32:09;;;;;;;4.88;3.70;;;17.40;99.90;;;;;;5032874;28;20045;-78
2022/05/08 09:34:53;;;;;;;5.15;3.67;;;17.60;99.90;;;;;;5032215;28;20151;-78
2022/05/08 09:37:19;;;;;;;4.97;3.47;;;17.60;99.30;;;;;;5014300;28;20029;-78
2022/05/08 09:39:45;;;;;;;5.70;3.65;;;17.70;99.40;;;;;;5032620;28;20148;-78
2022/05/08 09:42:37;;;;;;;6.95;3.75;;;17.70;99.80;;;;;;5032687;28;20033;-78
2022/05/08 09:45:07;;;;;;;6.80;3.70;;;17.70;99.10;;;;;;5012538;28;20478;-78
2022/05/08 09:48:00;;;;;;;5.22;3.50;;;17.80;98.80;;;;;;5014567;28;20026;-78
2022/05/08 09:50:27;;;;;;;5.95;3.63;;;17.80;99.10;;;;;;5028718;28;20045;-78
2022/05/08 09:52:53;;;;;;;4.70;3.53;;;17.90;99.60;;;;;;5017921;28;20065;-78
2022/05/08 09:55:19;;;;;;;5.82;3.88;;;18.00;99.90;;;;;;5035145;28;20367;-79
2022/05/08 09:57:44;;;;;;;4.43;3.13;;;18.10;99.90;;;;;;5018492;28;20508;-78
2022/05/08 10:00:11;;;;;;;5.57;3.20;;;18.20;99.80;;;;;;5036004;28;20097;-78
2022/05/08 10:02:39;;;;;;;4.07;2.97;;;18.30;99.50;;;;;;5035265;28;20021;-78
2022/05/08 10:05:06;;;;;;;5.32;3.67;;;18.30;99.40;;;;;;5017616;28;20462;-78
2022/05/08 10:07:32;;;;;;;10.00;3.17;;;18.30;99.30;;;;;;5035410;28;20037;-78
2022/05/08 10:15:30;;;;;;;5.82;3.83;;;18.60;98.60;;;;;;5035289;28;20059;-77
2022/05/08 10:18:31;;;;;;;5.97;3.33;;;18.60;98.60;;;;;;5018035;28;20120;-78
2022/05/08 10:21:12;;;;;;;3.15;2.80;;;18.70;96.10;;;;;;5017863;28;20040;-79
2022/05/08 10:23:38;;;;;;;5.53;3.58;;;18.70;97.80;;;;;;5017206;28;20438;-79
2022/05/08 10:26:23;;;;;;;4.50;3.35;;;18.80;97.90;;;;;;5017920;28;20029;-79
2022/05/08 10:29:03;;;;;;;5.95;3.50;;;18.80;96.30;;;;;;5035357;28;20026;-79
2022/05/08 10:31:51;;;;;;;5.50;2.93;;;18.70;95.20;;;;;;5016995;28;20207;-79
2022/05/08 10:34:31;;;;;;;4.25;3.08;;;18.80;95.30;;;;;;5034931;28;20454;-79
2022/05/08 10:37:12;;;;;;;3.88;3.17;;;18.80;94.70;;;;;;5017919;28;20466;-79
2022/05/08 10:39:41;;;;;;;3.88;3.00;;;18.80;93.70;;;;;;5017233;28;20518;-79
2022/05/08 10:42:29;;;;;;;4.30;2.80;;;18.80;93.90;;;;;;5017524;28;20459;-79
2022/05/08 10:44:58;;;;;;;3.85;2.72;;;18.90;93.70;;;;;;5017528;28;20554;-79
2022/05/08 10:47:33;;;;;;;5.63;2.70;;;18.90;93.50;;;;;;5016644;28;20045;-79
2022/05/08 10:50:09;;;;;;;4.05;3.20;;;18.90;94.30;;;;;;5017076;28;20116;-79
2022/05/08 10:52:43;;;;;;;5.88;3.55;;;19.00;93.80;;;;;;5016728;28;20091;-79
2022/05/08 10:55:17;;;;;;;5.50;3.47;;;19.20;95.40;;;;;;5017205;28;20453;-79
2022/05/08 10:57:48;;;;;;;5.68;3.28;;;19.20;96.20;;;;;;5034815;28;20104;-79
2022/05/08 11:00:21;;;;;;;5.63;3.03;;;19.20;94.30;;;;;;5017435;28;20029;-79
2022/05/08 11:02:57;;;;;;;3.80;2.70;;;19.30;94.60;;;;;;5016414;28;20116;-79
2022/05/08 11:05:39;;;;;;;5.80;2.88;;;19.40;95.10;;;;;;5034226;28;20029;-77
2022/05/08 11:08:12;;;;;;;;;;;19.50;94.70;;;;;;5017750;28;20521;-76
2022/05/08 11:10:42;;;;;;;3.72;3.13;;;19.60;96.00;;;;;;5016643;28;20508;-77
2022/05/08 11:13:17;;;;;;;9.23;3.05;;;19.70;95.00;;;;;;5034745;28;20472;-77
2022/05/08 11:15:43;;;;;;;4.07;3.10;;;19.80;94.80;;;;;;5016706;28;20026;-77
2022/05/08 11:18:09;;;;;;;8.15;3.20;;;19.70;93.40;;;;;;5034492;28;20374;-79
2022/05/08 11:20:38;;;;;;;5.13;2.75;;;19.90;94.90;;;;;;5016101;28;20030;-79
2022/05/08 11:23:10;;;;;;;5.65;2.75;;;20.00;94.70;;;;;;5016481;28;20487;-79
2022/05/08 11:25:35;;;;;;;4.85;2.80;;;20.00;93.00;;;;;;5016109;28;20075;-79
2022/05/08 11:28:01;;;;;;;5.35;2.88;;;20.20;94.00;;;;;;5016645;28;20128;-79
2022/05/08 11:30:35;;;;;;;3.72;2.65;;;20.20;92.20;;;;;;5033800;28;20033;-78
2022/05/08 11:36:11;;;;;;;3.35;2.38;;;20.40;90.50;;;;;;5034397;28;20390;-79
2022/05/08 11:38:50;;;;;;;3.28;2.33;;;20.50;88.80;;;;;;5033851;28;20030;-79
2022/05/08 11:41:18;;;;;;;4.10;2.95;;;20.60;90.60;;;;;;5034312;28;20030;-79
2022/05/08 11:43:48;;;;;;;4.10;2.08;;;20.70;86.40;;;;;;5033654;28;20026;-79
2022/05/08 11:46:16;;;;;;;3.83;2.30;;;20.80;85.90;;;;;;5034395;28;20029;-79
2022/05/08 11:48:47;;;;;;;5.47;2.53;;;20.90;83.10;;;;;;5032419;28;20032;-79
2022/05/08 11:51:20;;;;;;;4.07;2.30;;;21.00;85.40;;;;;;5016324;28;20033;-79
2022/05/08 11:53:47;;;;;;;4.38;2.05;;;21.20;84.60;;;;;;5033852;28;20267;-77
2022/05/08 11:56:28;;;;;;;3.15;2.30;;;21.30;82.00;;;;;;5033804;28;20025;-77
2022/05/08 11:58:59;;;;;;;3.83;2.30;;;21.40;80.60;;;;;;5033914;28;20026;-77
2022/05/08 12:01:35;;;;;;;3.72;2.10;;;21.50;79.60;;;;;;5015980;28;20037;-77
2022/05/08 12:04:21;;;;;;;4.03;2.10;;;21.60;78.50;;;;;;5015985;28;20029;-77
2022/05/08 12:07:01;;;;;;;6.32;2.40;;;21.80;79.30;;;;;;5016364;28;20069;-77
2022/05/08 12:09:32;;;;;;;3.80;2.35;;;21.80;72.10;;;;;;5015471;28;20067;-77
2022/05/08 12:12:20;;;;;;;2.53;2.33;;;21.80;72.60;;;;;;5016009;28;20034;-77
2022/05/08 12:14:46;;;;;;;2.83;2.20;;;22.00;73.00;;;;;;5015374;28;20032;-77
2022/05/08 12:17:12;;;;;;;3.05;2.00;;;22.10;73.80;;;;;;5033399;28;20021;-77
2022/05/08 12:19:57;;;;;;;4.63;2.10;;;22.20;74.40;;;;;;5032969;28;20067;-77
2022/05/08 12:22:25;;;;;;;2.53;1.92;;;22.40;77.40;;;;;;5015140;28;20060;-79
2022/05/08 12:24:58;;;;;;;2.25;1.92;;;22.60;69.30;;;;;;5016046;28;20066;-77
2022/05/08 12:27:24;;;;;;;3.78;2.17;;;22.70;72.10;;;;;;5031652;28;20124;-77
2022/05/08 12:29:50;;;;;;;5.40;2.22;;;22.90;70.10;;;;;;5015687;28;20034;-77
2022/05/08 12:32:17;;;;;;;4.10;1.90;;;22.90;68.70;;;;;;5032128;28;20029;-77
2022/05/08 12:34:44;;;;;;;3.15;2.00;;;23.10;71.30;;;;;;5015081;28;20034;-77
2022/05/08 12:37:12;;;;;;;3.15;2.13;;;23.10;69.90;;;;;;5033037;28;20087;-79
2022/05/08 12:39:38;;;;;;;2.28;2.03;;;23.10;68.60;;;;;;5015148;28;20033;-77
2022/05/08 12:42:05;;;;;;;2.08;1.75;;;23.10;67.80;;;;;;5033336;28;20026;-77
2022/05/08 12:44:31;;;;;;;4.45;2.38;;;23.10;68.30;;;;;;5015322;28;20103;-77
2022/05/08 12:46:57;;;;;;;4.00;2.15;;;23.20;66.90;;;;;;5015709;28;20029;-77
2022/05/08 12:49:23;;;;;;;2.40;2.00;;;23.30;64.60;;;;;;5015528;28;20446;-77
2022/05/08 12:51:49;;;;;;;2.83;2.20;;;23.40;66.30;;;;;;5033242;28;20041;-77
2022/05/08 12:54:15;;;;;;;3.10;2.10;;;23.60;66.60;;;;;;5033228;28;20037;-77
2022/05/08 12:56:41;;;;;;;5.55;2.58;;;23.70;67.80;;;;;;5015013;28;20451;-77
2022/05/08 13:01:51;;;;;;;2.15;1.95;;;23.80;66.70;;;;;;5033287;28;20053;-77
2022/05/08 13:04:17;;;;;;;4.43;2.22;;;23.90;67.80;;;;;;5015408;28;20036;-77
2022/05/08 13:06:42;;;;;;;4.22;2.30;;;24.10;66.20;;;;;;5014784;28;20025;-77
2022/05/08 13:09:09;;;;;;;2.35;2.15;;;24.30;62.10;;;;;;5015456;28;20080;-77
2022/05/08 13:11:35;;;;;;;2.85;1.85;;;24.40;60.30;;;;;;5030851;28;20037;-77
2022/05/08 13:14:02;;;;;;;3.47;2.85;;;24.50;59.70;;;;;;5032753;28;20032;-76
2022/05/08 13:16:28;;;;;;;3.08;2.20;;;24.60;59.10;;;;;;5014820;28;20025;-77
2022/05/08 13:18:54;;;;;;;3.05;2.25;;;24.70;57.30;;;;;;5032772;28;20026;-77
2022/05/08 13:21:20;;;;;;;3.90;2.15;;;24.80;57.40;;;;;;5031484;28;20030;-77
2022/05/08 13:23:46;;;;;;;6.97;2.05;;;24.70;58.90;;;;;;5032525;28;20410;-77
2022/05/08 13:26:12;;;;;;;4.32;1.95;;;24.60;59.70;;;;;;5015569;28;20057;-77
2022/05/08 13:28:38;;;;;;;4.05;1.85;;;24.70;57.60;;;;;;5018695;28;20521;-77